createdAt,value
2019-02-08T00:02:05.644Z,33.30
2019-02-08T00:04:35.976Z,32.50
2019-02-08T00:07:06.535Z,33.87
2019-02-08T00:09:37.018Z,33.10
2019-02-08T00:12:07.356Z,32.33
2019-02-08T00:14:37.847Z,34.70
2019-02-08T00:17:08.188Z,33.37
2019-02-08T00:19:38.622Z,33.40
2019-02-08T00:22:08.934Z,29.50
2019-02-08T00:24:39.340Z,32.90
2019-02-08T00:27:09.787Z,33.00
2019-02-08T00:29:40.317Z,33.00
2019-02-08T00:32:10.678Z,33.60
2019-02-08T00:34:41.049Z,33.80
2019-02-08T00:37:11.889Z,33.17
2019-02-08T00:39:42.334Z,31.93
2019-02-08T00:42:12.873Z,32.77
2019-02-08T00:44:43.532Z,33.57
2019-02-08T00:47:13.920Z,31.30
2019-02-08T00:49:44.665Z,32.53
2019-02-08T00:52:15.477Z,33.33
2019-02-08T00:54:45.916Z,31.77
2019-02-08T00:57:16.328Z,31.57
2019-02-08T00:59:46.773Z,31.43
2019-02-08T01:02:17.298Z,30.33
2019-02-08T01:04:47.723Z,30.40
2019-02-08T01:07:30.531Z,32.67
2019-02-08T01:10:00.956Z,29.37
2019-02-08T01:12:31.301Z,24.87
2019-02-08T01:15:02.667Z,31.53
2019-02-08T01:17:33.174Z,30.90
2019-02-08T01:20:03.602Z,29.87
2019-02-08T01:22:34.122Z,27.77
2019-02-08T01:25:06.023Z,31.60
2019-02-08T01:27:36.411Z,30.97
2019-02-08T01:30:09.491Z,31.37
2019-02-08T01:32:40.002Z,30.50
2019-02-08T01:35:10.671Z,29.13
2019-02-08T01:37:41.082Z,30.80
2019-02-08T01:40:15.433Z,30.23
2019-02-08T01:42:45.779Z,30.57
2019-02-08T01:45:18.582Z,30.47
2019-02-08T01:47:48.937Z,29.57
2019-02-08T01:50:24.116Z,30.53
2019-02-08T01:52:54.394Z,30.90
2019-02-08T01:55:25.833Z,30.67
2019-02-08T01:57:56.321Z,32.47
2019-02-08T02:00:35.039Z,30.67
2019-02-08T02:03:06.341Z,30.27
2019-02-08T02:05:36.773Z,30.77
2019-02-08T02:08:07.267Z,31.00
2019-02-08T02:10:39.850Z,30.80
2019-02-08T02:13:10.843Z,31.40
2019-02-08T02:15:41.174Z,31.63
2019-02-08T02:18:12.467Z,30.63
2019-02-08T02:20:43.532Z,31.80
2019-02-08T02:23:15.642Z,30.63
2019-02-08T02:25:46.036Z,31.93
2019-02-08T02:28:16.338Z,33.93
2019-02-08T02:30:46.810Z,29.97
2019-02-08T02:33:17.091Z,32.43
2019-02-08T02:35:47.502Z,29.23
2019-02-08T02:38:17.966Z,33.77
2019-02-08T02:40:48.371Z,32.37
2019-02-08T02:43:18.542Z,31.87
2019-02-08T02:45:48.865Z,31.23
2019-02-08T02:48:19.090Z,31.87
2019-02-08T02:50:49.664Z,31.40
2019-02-08T02:53:20.326Z,32.37
2019-02-08T02:55:50.735Z,31.83
2019-02-08T02:58:21.119Z,31.60
2019-02-08T03:00:52.422Z,30.20
2019-02-08T03:03:22.684Z,29.57
2019-02-08T03:05:53.040Z,32.73
2019-02-08T03:08:23.393Z,33.27
2019-02-08T03:10:53.897Z,31.83
2019-02-08T03:13:24.283Z,32.37
2019-02-08T03:15:54.863Z,31.43
2019-02-08T03:18:25.302Z,33.40
2019-02-08T03:20:55.594Z,33.30
2019-02-08T03:23:26.234Z,33.93
2019-02-08T03:25:57.991Z,27.40
2019-02-08T03:28:28.327Z,33.53
2019-02-08T03:30:59.268Z,32.27
2019-02-08T03:33:29.901Z,31.17
2019-02-08T03:36:00.212Z,33.27
2019-02-08T03:38:30.571Z,33.07
2019-02-08T03:41:00.901Z,35.67
2019-02-08T03:43:31.158Z,34.80
2019-02-08T03:46:02.569Z,35.73
2019-02-08T03:48:32.948Z,34.83
2019-02-08T03:51:03.312Z,31.30
2019-02-08T03:53:33.738Z,36.57
2019-02-08T03:56:04.144Z,37.10
2019-02-08T03:58:34.457Z,35.93
2019-02-08T04:01:06.454Z,38.07
2019-02-08T04:03:36.847Z,34.80
2019-02-08T04:06:08.292Z,36.07
2019-02-08T04:08:38.622Z,36.10
2019-02-08T04:11:09.065Z,37.37
2019-02-08T04:13:39.453Z,36.63
2019-02-08T04:16:09.697Z,37.47
2019-02-08T04:18:40.094Z,36.40
2019-02-08T04:21:10.565Z,38.20
2019-02-08T04:23:40.954Z,38.63
2019-02-08T04:26:11.271Z,37.63
2019-02-08T04:28:41.612Z,37.53
2019-02-08T04:31:11.852Z,38.13
2019-02-08T04:33:42.299Z,37.63
2019-02-08T04:36:12.698Z,37.03
2019-02-08T04:38:43.082Z,37.40
2019-02-08T04:41:13.563Z,33.37
2019-02-08T04:43:45.004Z,39.03
2019-02-08T04:46:15.498Z,38.50
2019-02-08T04:48:45.722Z,38.03
2019-02-08T04:51:15.994Z,35.03
2019-02-08T04:53:46.512Z,37.63
2019-02-08T04:56:16.875Z,38.83
2019-02-08T04:58:47.108Z,35.47
2019-02-08T05:01:17.861Z,37.20
2019-02-08T05:03:48.128Z,37.77
2019-02-08T05:06:18.610Z,38.13
2019-02-08T05:08:49.023Z,39.23
2019-02-08T05:11:19.302Z,37.23
2019-02-08T05:13:49.684Z,39.50
2019-02-08T05:16:20.140Z,39.67
2019-02-08T05:18:50.450Z,38.03
2019-02-08T05:21:20.792Z,37.43
2019-02-08T05:23:51.066Z,38.37
2019-02-08T05:26:21.365Z,37.70
2019-02-08T05:28:51.789Z,38.77
2019-02-08T05:31:22.126Z,37.60
2019-02-08T05:33:52.514Z,37.77
2019-02-08T05:36:22.942Z,37.20
2019-02-08T05:38:53.363Z,41.70
2019-02-08T05:41:23.685Z,38.23
2019-02-08T05:43:53.991Z,36.73
2019-02-08T05:46:24.373Z,41.23
2019-02-08T05:48:54.746Z,38.43
2019-02-08T05:51:25.302Z,38.97
2019-02-08T05:53:55.562Z,38.67
2019-02-08T05:56:26.116Z,37.67
2019-02-08T05:58:56.414Z,37.80
2019-02-08T06:01:26.801Z,39.70
2019-02-08T06:03:59.267Z,38.50
2019-02-08T06:06:29.885Z,38.93
2019-02-08T06:09:00.321Z,38.60
2019-02-08T06:11:32.814Z,39.27
2019-02-08T06:14:02.816Z,39.53
2019-02-08T06:16:33.283Z,40.63
2019-02-08T06:19:03.882Z,37.83
2019-02-08T06:21:34.305Z,39.37
2019-02-08T06:24:04.867Z,38.93
2019-02-08T06:26:35.186Z,36.63
2019-02-08T06:29:05.784Z,39.00
2019-02-08T06:31:36.212Z,38.90
2019-02-08T06:34:06.579Z,38.47
2019-02-08T06:36:37.232Z,39.83
2019-02-08T06:39:10.784Z,38.87
2019-02-08T06:41:41.454Z,39.67
2019-02-08T06:44:11.858Z,40.80
2019-02-08T06:46:42.269Z,39.37
2019-02-08T06:49:12.614Z,39.70
2019-02-08T06:51:43.397Z,40.80
2019-02-08T06:54:13.684Z,39.73
2019-02-08T06:57:02.990Z,39.97
2019-02-08T06:59:43.915Z,41.20
2019-02-08T07:02:22.729Z,40.37
2019-02-08T07:05:12.175Z,36.17
2019-02-08T07:07:52.339Z,39.07
2019-02-08T07:10:41.751Z,40.10
2019-02-08T07:13:31.257Z,38.17
2019-02-08T07:16:16.676Z,38.50
2019-02-08T07:18:52.544Z,37.27
2019-02-08T07:21:34.908Z,37.07
2019-02-08T07:24:24.623Z,39.17
2019-02-08T07:27:02.328Z,39.63
2019-02-08T07:29:51.798Z,38.43
2019-02-08T07:32:33.899Z,38.07
2019-02-08T07:35:21.803Z,37.50
2019-02-08T07:38:11.366Z,36.57
2019-02-08T07:40:58.419Z,37.60
2019-02-08T07:43:43.514Z,36.87
2019-02-08T07:46:32.959Z,40.43
2019-02-08T07:49:09.205Z,38.73
2019-02-08T07:51:58.691Z,37.37
2019-02-08T07:54:38.543Z,35.97
2019-02-08T07:57:27.930Z,38.27
2019-02-08T08:00:17.393Z,37.80
2019-02-08T08:03:06.864Z,38.93
2019-02-08T08:05:52.227Z,38.97
2019-02-08T08:08:42.590Z,36.73
2019-02-08T08:11:25.696Z,35.87
2019-02-08T08:14:04.972Z,37.07
2019-02-08T08:16:52.662Z,35.50
2019-02-08T08:19:30.733Z,36.00
2019-02-08T08:22:20.162Z,35.47
2019-02-08T08:25:09.663Z,34.27
2019-02-08T08:27:59.193Z,35.07
2019-02-08T08:30:48.715Z,33.40
2019-02-08T08:33:27.959Z,32.73
2019-02-08T08:36:34.827Z,32.87
2019-02-08T08:39:43.694Z,31.10
2019-02-08T08:42:52.678Z,28.70
2019-02-08T08:45:37.506Z,27.30
2019-02-08T08:48:45.836Z,30.97
2019-02-08T08:51:54.724Z,31.27
2019-02-08T08:54:56.680Z,32.17
2019-02-08T08:57:54.190Z,29.03
2019-02-08T09:00:53.274Z,31.23
2019-02-08T09:03:55.866Z,30.37
2019-02-08T09:07:04.816Z,31.47
2019-02-08T09:10:13.332Z,31.00
2019-02-08T09:12:57.225Z,29.43
2019-02-08T09:16:06.315Z,27.70
2019-02-08T09:19:05.098Z,28.03
2019-02-08T09:21:56.344Z,29.13
2019-02-08T09:25:05.481Z,29.70
2019-02-08T09:28:04.003Z,29.17
2019-02-08T09:30:53.752Z,30.47
2019-02-08T09:33:55.543Z,28.77
2019-02-08T09:37:04.534Z,24.73
2019-02-08T09:39:51.672Z,27.20
2019-02-08T09:43:00.590Z,26.03
2019-02-08T09:45:40.745Z,29.77
2019-02-08T09:48:38.583Z,27.57
2019-02-08T09:51:35.723Z,27.20
2019-02-08T09:54:39.736Z,27.87
2019-02-08T09:57:38.223Z,27.90
2019-02-08T10:00:47.417Z,27.73
2019-02-08T10:03:56.435Z,26.97
2019-02-08T10:06:50.913Z,26.70
2019-02-08T10:10:02.759Z,28.70
2019-02-08T10:13:11.911Z,26.27
2019-02-08T10:16:20.898Z,25.37
2019-02-08T10:19:30.862Z,27.83
2019-02-08T10:22:26.312Z,25.80
2019-02-08T10:25:35.306Z,26.67
2019-02-08T10:28:44.252Z,26.40
2019-02-08T10:31:39.649Z,27.17
2019-02-08T10:34:35.543Z,26.47
2019-02-08T10:37:39.932Z,26.73
2019-02-08T10:40:48.882Z,25.90
2019-02-08T10:43:57.845Z,25.47
2019-02-08T10:47:06.821Z,25.60
2019-02-08T10:50:12.496Z,24.60
2019-02-08T10:53:09.253Z,24.90
2019-02-08T10:56:04.585Z,26.07
2019-02-08T10:59:09.891Z,26.97
2019-02-08T11:02:18.751Z,25.20
2019-02-08T11:05:19.930Z,25.30
2019-02-08T11:08:29.103Z,26.70
2019-02-08T11:11:25.108Z,24.50
2019-02-08T11:14:16.414Z,24.93
2019-02-08T11:17:25.443Z,25.00
2019-02-08T11:19:56.085Z,24.40
2019-02-08T11:22:26.468Z,25.20
2019-02-08T11:24:56.773Z,25.73
2019-02-08T11:27:27.213Z,23.53
2019-02-08T11:29:57.475Z,29.00
2019-02-08T11:32:42.511Z,27.13
2019-02-08T11:34:59.834Z,24.67
2019-02-08T11:37:30.202Z,26.93
2019-02-08T11:40:00.647Z,26.00
2019-02-08T11:42:31.239Z,26.43
2019-02-08T11:45:01.636Z,28.77
2019-02-08T11:47:32.057Z,28.23
2019-02-08T11:50:02.384Z,27.77
2019-02-08T11:52:32.974Z,28.80
2019-02-08T11:55:03.330Z,27.47
2019-02-08T11:57:34.377Z,28.53
2019-02-08T12:00:06.315Z,27.40
2019-02-08T12:02:40.595Z,28.93
2019-02-08T12:05:08.892Z,28.87
2019-02-08T12:07:39.311Z,24.73
2019-02-08T12:10:09.856Z,28.23
2019-02-08T12:12:40.226Z,26.40
2019-02-08T12:15:11.752Z,27.23
2019-02-08T12:17:42.122Z,27.77
2019-02-08T12:20:12.550Z,26.17
2019-02-08T12:22:43.130Z,27.00
2019-02-08T12:25:13.492Z,27.10
2019-02-08T12:27:43.848Z,26.27
2019-02-08T12:30:19.867Z,25.20
2019-02-08T12:32:50.296Z,26.07
2019-02-08T12:35:20.645Z,25.80
2019-02-08T12:37:51.243Z,24.50
2019-02-08T12:40:21.764Z,28.03
2019-02-08T12:42:52.062Z,24.50
2019-02-08T12:45:22.462Z,26.67
2019-02-08T12:47:52.847Z,25.77
2019-02-08T12:50:23.401Z,24.63
2019-02-08T12:52:53.751Z,26.50
2019-02-08T12:55:24.123Z,26.77
2019-02-08T12:57:54.511Z,27.10
2019-02-08T13:00:24.916Z,26.67
2019-02-08T13:02:55.280Z,25.50
2019-02-08T13:05:25.653Z,26.97
2019-02-08T13:07:56.002Z,25.37
2019-02-08T13:10:26.514Z,25.70
2019-02-08T13:12:56.847Z,27.37
2019-02-08T13:15:27.199Z,26.70
2019-02-08T13:17:57.560Z,27.20
2019-02-08T13:20:28.139Z,25.67
2019-02-08T13:22:58.471Z,26.00
2019-02-08T13:25:28.764Z,26.03
2019-02-08T13:27:59.029Z,25.93
2019-02-08T13:30:29.813Z,24.87
2019-02-08T13:33:00.091Z,24.70
2019-02-08T13:35:30.613Z,22.83
2019-02-08T13:38:01.131Z,23.10
2019-02-08T13:40:31.472Z,24.53
2019-02-08T13:43:02.031Z,23.40
2019-02-08T13:45:32.487Z,22.87
2019-02-08T13:48:02.833Z,22.63
2019-02-08T13:50:33.358Z,23.70
2019-02-08T13:53:03.698Z,23.83
2019-02-08T13:55:34.083Z,22.03
2019-02-08T13:58:06.076Z,22.33
2019-02-08T14:00:37.526Z,21.77
2019-02-08T14:03:08.222Z,21.30
2019-02-08T14:05:38.821Z,21.13
2019-02-08T14:08:09.168Z,20.10
2019-02-08T14:10:39.683Z,20.80
2019-02-08T14:13:10.026Z,21.53
2019-02-08T14:15:40.450Z,20.23
2019-02-08T14:18:10.836Z,20.17
2019-02-08T14:20:41.212Z,21.40
2019-02-08T14:23:11.892Z,19.03
2019-02-08T14:25:42.433Z,19.57
2019-02-08T14:28:12.713Z,19.20
2019-02-08T14:30:43.426Z,19.90
2019-02-08T14:33:13.885Z,18.77
2019-02-08T14:35:44.267Z,19.00
2019-02-08T14:38:18.843Z,18.80
2019-02-08T14:40:49.312Z,19.63
2019-02-08T14:43:19.607Z,19.60
2019-02-08T14:45:50.037Z,20.23
2019-02-08T14:48:20.665Z,20.17
2019-02-08T14:50:51.171Z,21.50
2019-02-08T14:53:21.709Z,21.77
2019-02-08T14:55:52.393Z,22.70
2019-02-08T14:58:22.846Z,22.37
2019-02-08T15:00:53.189Z,22.70
2019-02-08T15:03:23.737Z,24.00
2019-02-08T15:05:54.174Z,23.50
2019-02-08T15:08:24.529Z,24.47
2019-02-08T15:10:54.891Z,26.47
2019-02-08T15:13:25.258Z,25.27
2019-02-08T15:15:55.783Z,26.87
2019-02-08T15:18:26.201Z,26.53
2019-02-08T15:20:56.635Z,28.33
2019-02-08T15:23:27.561Z,28.23
2019-02-08T15:25:58.085Z,28.47
2019-02-08T15:28:28.497Z,29.97
2019-02-08T15:30:59.053Z,30.83
2019-02-08T15:33:29.484Z,29.07
2019-02-08T15:36:00.170Z,31.37
2019-02-08T15:38:30.742Z,32.40
2019-02-08T15:41:01.389Z,32.97
2019-02-08T15:43:32.004Z,32.50
2019-02-08T15:46:04.863Z,31.97
2019-02-08T15:48:35.398Z,30.60
2019-02-08T15:51:05.947Z,33.27
2019-02-08T15:53:37.824Z,32.50
2019-02-08T15:56:11.759Z,34.73
2019-02-08T15:58:42.244Z,34.13
2019-02-08T16:01:13.150Z,33.83
2019-02-08T16:03:44.610Z,35.00
2019-02-08T16:06:14.988Z,35.00
2019-02-08T16:08:45.378Z,35.10
2019-02-08T16:11:15.958Z,36.80
2019-02-08T16:13:46.257Z,35.63
2019-02-08T16:16:16.594Z,37.20
2019-02-08T16:18:46.830Z,35.97
2019-02-08T16:21:17.263Z,38.00
2019-02-08T16:23:47.892Z,34.93
2019-02-08T16:26:18.282Z,37.00
2019-02-08T16:28:48.681Z,36.97
2019-02-08T16:31:19.129Z,35.37
2019-02-08T16:33:49.593Z,36.80
2019-02-08T16:36:20.083Z,35.90
2019-02-08T16:38:50.580Z,35.97
2019-02-08T16:41:20.991Z,37.13
2019-02-08T16:43:51.413Z,36.43
2019-02-08T16:46:21.976Z,37.63
2019-02-08T16:48:52.542Z,35.53
2019-02-08T16:51:23.043Z,36.97
2019-02-08T16:53:53.887Z,36.73
2019-02-08T16:56:24.474Z,36.63
2019-02-08T16:58:54.806Z,38.63
2019-02-08T17:01:25.327Z,37.97
2019-02-08T17:03:55.790Z,38.20
2019-02-08T17:06:26.419Z,36.90
2019-02-08T17:08:57.120Z,37.67
2019-02-08T17:11:27.685Z,38.00
2019-02-08T17:13:58.211Z,38.30
2019-02-08T17:16:28.649Z,36.77
2019-02-08T17:18:59.187Z,36.70
2019-02-08T17:21:29.702Z,38.63
2019-02-08T17:24:00.234Z,37.30
2019-02-08T17:26:30.711Z,39.40
2019-02-08T17:29:01.229Z,39.03
2019-02-08T17:31:32.007Z,41.93
2019-02-08T17:34:03.061Z,44.77
2019-02-08T17:36:33.560Z,44.87
2019-02-08T17:39:05.827Z,45.17
2019-02-08T17:41:37.343Z,41.37
2019-02-08T17:44:08.178Z,44.70
2019-02-08T17:46:39.270Z,45.47
2019-02-08T17:49:10.023Z,44.53
2019-02-08T17:51:40.820Z,42.93
2019-02-08T17:54:12.292Z,44.70
2019-02-08T17:56:43.062Z,44.80
2019-02-08T17:59:13.449Z,42.37
2019-02-08T18:01:43.926Z,41.63
2019-02-08T18:04:14.428Z,46.33
2019-02-08T18:06:45.095Z,46.23
2019-02-08T18:09:24.183Z,44.87
2019-02-08T18:11:54.704Z,45.57
2019-02-08T18:14:25.524Z,45.20
2019-02-08T18:16:55.749Z,42.53
2019-02-08T18:19:26.488Z,40.57
2019-02-08T18:21:56.870Z,39.67
2019-02-08T18:24:27.351Z,41.93
2019-02-08T18:26:58.112Z,45.60
2019-02-08T18:29:28.462Z,44.97
2019-02-08T18:31:58.886Z,42.93
2019-02-08T18:34:29.177Z,42.67
2019-02-08T18:36:59.735Z,48.60
2019-02-08T18:39:30.323Z,48.33
2019-02-08T18:42:00.692Z,45.83
2019-02-08T18:44:31.091Z,50.33
2019-02-08T18:47:01.470Z,46.50
2019-02-08T18:49:32.824Z,50.80
2019-02-08T18:52:03.735Z,47.03
2019-02-08T18:54:34.130Z,45.93
2019-02-08T18:57:04.528Z,44.50
2019-02-08T18:59:34.826Z,44.17
2019-02-08T19:02:05.100Z,46.23
2019-02-08T19:04:35.493Z,43.03
2019-02-08T19:07:06.116Z,44.37
2019-02-08T19:09:36.584Z,57.38
2019-02-08T19:12:07.042Z,46.83
2019-02-08T19:14:45.029Z,44.97
2019-02-08T19:17:15.601Z,45.10
2019-02-08T19:19:46.244Z,46.53
2019-02-08T19:22:16.676Z,45.77
2019-02-08T19:24:47.032Z,48.20
2019-02-08T19:27:18.908Z,50.50
2019-02-08T19:29:49.380Z,51.10
2019-02-08T19:32:19.813Z,52.87
2019-02-08T19:34:50.349Z,59.00
2019-02-08T19:37:23.741Z,54.33
2019-02-08T19:39:54.367Z,53.10
2019-02-08T19:42:24.755Z,52.37
2019-02-08T19:44:55.445Z,50.47
2019-02-08T19:47:25.954Z,49.47
2019-02-08T19:49:56.547Z,53.20
2019-02-08T19:52:26.972Z,48.83
2019-02-08T19:54:57.314Z,49.40
2019-02-08T19:57:28.107Z,48.43
2019-02-08T20:00:00.662Z,48.50
2019-02-08T20:02:31.128Z,44.23
2019-02-08T20:05:01.439Z,45.87
2019-02-08T20:07:32.117Z,48.37
2019-02-08T20:10:02.773Z,47.10
2019-02-08T20:12:33.443Z,44.37
2019-02-08T20:15:03.882Z,47.40
2019-02-08T20:17:34.372Z,45.67
2019-02-08T20:20:06.838Z,43.27
2019-02-08T20:22:37.248Z,41.83
2019-02-08T20:25:21.921Z,43.10
2019-02-08T20:27:52.402Z,41.77
2019-02-08T20:30:23.163Z,42.50
2019-02-08T20:32:54.301Z,40.20
2019-02-08T20:35:31.552Z,38.77
2019-02-08T20:41:04.780Z,41.93
2019-02-08T20:43:35.241Z,39.47
2019-02-08T20:46:05.674Z,38.50
2019-02-08T20:48:36.022Z,41.73
2019-02-08T20:51:06.517Z,39.40
2019-02-08T20:53:36.929Z,41.87
2019-02-08T20:56:07.383Z,45.20
2019-02-08T20:58:37.912Z,49.60
2019-02-08T21:01:08.361Z,51.57
2019-02-08T21:03:38.940Z,54.67
2019-02-08T21:06:09.433Z,56.20
2019-02-08T21:08:39.994Z,58.83
2019-02-08T21:11:10.647Z,59.47
2019-02-08T21:13:41.090Z,58.00
2019-02-08T21:16:11.695Z,57.20
2019-02-08T21:18:42.214Z,54.47
2019-02-08T21:21:12.593Z,51.60
2019-02-08T21:23:43.061Z,51.63
2019-02-08T21:26:13.457Z,49.60
2019-02-08T21:28:43.811Z,50.57
2019-02-08T21:31:14.319Z,47.83
2019-02-08T21:33:44.542Z,48.30
2019-02-08T21:36:14.871Z,46.43
2019-02-08T21:38:45.243Z,48.77
2019-02-08T21:41:15.562Z,53.63
2019-02-08T21:43:46.300Z,57.03
2019-02-08T21:46:16.840Z,57.07
2019-02-08T21:48:47.218Z,58.27
2019-02-08T21:51:17.598Z,60.03
2019-02-08T21:53:48.019Z,60.20
2019-02-08T21:56:18.329Z,57.80
2019-02-08T21:58:48.889Z,59.60
2019-02-08T22:01:19.360Z,57.77
2019-02-08T22:03:49.693Z,57.47
2019-02-08T22:06:20.958Z,57.33
2019-02-08T22:08:51.389Z,56.97
2019-02-08T22:11:21.720Z,57.80
2019-02-08T22:13:52.122Z,60.40
2019-02-08T22:16:22.840Z,61.03
2019-02-08T22:18:56.230Z,61.00
2019-02-08T22:21:26.559Z,59.40
2019-02-08T22:23:57.009Z,59.00
2019-02-08T22:26:27.453Z,62.13
2019-02-08T22:28:57.743Z,63.27
2019-02-08T22:31:28.135Z,66.93
2019-02-08T22:33:58.835Z,67.27
2019-02-08T22:36:29.199Z,70.83
2019-02-08T22:38:59.582Z,68.87
2019-02-08T22:41:30.035Z,74.53
2019-02-08T22:44:00.609Z,72.47
2019-02-08T22:46:31.169Z,75.87
2019-02-08T22:49:01.582Z,73.90
2019-02-08T22:51:31.912Z,74.63
2019-02-08T22:54:03.362Z,72.23
2019-02-08T22:56:33.740Z,76.97
2019-02-08T22:59:04.525Z,75.83
2019-02-08T23:01:37.799Z,77.73
2019-02-08T23:04:08.718Z,81.60
2019-02-08T23:06:44.639Z,82.43
2019-02-08T23:09:24.016Z,80.40
2019-02-08T23:11:54.331Z,81.20
2019-02-08T23:14:24.712Z,79.50
2019-02-08T23:16:55.090Z,81.60
2019-02-08T23:19:25.548Z,82.10
2019-02-08T23:21:56.499Z,78.23
2019-02-08T23:24:26.918Z,79.97
2019-02-08T23:26:58.263Z,76.37
2019-02-08T23:29:30.288Z,78.77
2019-02-08T23:32:00.786Z,78.37
2019-02-08T23:34:31.197Z,81.27
2019-02-08T23:37:01.599Z,78.87
2019-02-08T23:39:32.260Z,85.80
2019-02-08T23:42:02.574Z,82.27
2019-02-08T23:44:32.981Z,85.37
2019-02-08T23:47:03.262Z,85.20
2019-02-08T23:49:36.444Z,86.03
2019-02-08T23:52:06.731Z,84.33
2019-02-08T23:54:37.195Z,83.43
2019-02-08T23:57:07.436Z,84.00
2019-02-08T23:59:38.475Z,87.70
